Time;durP1;ratioP1;P1;durP2;ratioP2;P2;SDS_P1;SDS_P2;PMS_P1;PMS_P2;Temp;Humidity;BMP_temperature;BMP_pressure;BME280_temperature;BME280_humidity;BME280_pressure;Samples;Min_cycle;Max_cycle;Signal;HPM_P1;HPM_P2
2023/05/17 00:01:47;;;;;;;17.30;3.83;;;;;;;7.79;94.02;102529.97;6251887;22;20047;-76
2023/05/17 00:04:13;;;;;;;7.97;3.90;;;;;;;7.77;93.94;102532.22;6251102;22;20035;-76
2023/05/17 00:06:40;;;;;;;10.68;3.50;;;;;;;7.75;94.21;102537.16;6251643;22;20021;-76
2023/05/17 00:09:06;;;;;;;10.35;3.67;;;;;;;7.70;94.44;102537.50;6251908;22;20130;-77
2023/05/17 00:11:33;;;;;;;7.35;3.40;;;;;;;7.69;94.38;102536.00;6251857;22;20443;-76
2023/05/17 00:14:00;;;;;;;11.35;3.83;;;;;;;7.67;94.45;102532.97;6251725;22;20440;-76
2023/05/17 00:16:27;;;;;;;12.38;3.65;;;;;;;7.65;94.53;102529.91;6251737;22;20051;-77
2023/05/17 00:18:53;;;;;;;7.53;3.08;;;;;;;7.64;94.85;102528.41;6251321;22;20044;-77
2023/05/17 00:21:20;;;;;;;8.27;3.78;;;;;;;7.60;94.73;102533.69;6251831;22;20108;-76
2023/05/17 00:23:46;;;;;;;8.68;3.42;;;;;;;7.62;95.66;102536.72;6251991;22;20453;-77
2023/05/17 00:26:13;;;;;;;13.20;3.90;;;;;;;7.64;96.39;102536.34;6251857;22;20020;-77
2023/05/17 00:28:40;;;;;;;11.57;4.00;;;;;;;7.68;96.40;102542.44;6251467;22;20016;-77
2023/05/17 00:31:07;;;;;;;6.40;3.50;;;;;;;7.70;96.63;102535.63;6249832;22;20021;-77
2023/05/17 00:33:33;;;;;;;11.25;3.70;;;;;;;7.74;97.28;102527.69;6251200;22;20020;-77
2023/05/17 00:36:00;;;;;;;10.45;4.20;;;;;;;7.75;97.25;102520.47;6251802;22;20435;-77
2023/05/17 00:38:27;;;;;;;15.55;4.20;;;;;;;7.74;97.36;102529.56;6251665;22;20044;-77
2023/05/17 00:40:53;;;;;;;13.93;4.10;;;;;;;7.72;97.08;102514.03;6250027;22;20027;-77
2023/05/17 00:43:20;;;;;;;14.15;4.18;;;;;;;7.67;97.40;102517.81;6249916;22;20043;-77
2023/05/17 00:45:49;;;;;;;12.60;4.13;;;;;;;7.62;97.70;102512.88;6251499;22;20023;-77
2023/05/17 00:48:15;;;;;;;14.63;3.95;;;;;;;7.59;97.83;102518.97;6250951;22;20021;-77
2023/05/17 00:50:42;;;;;;;15.13;4.53;;;;;;;7.56;97.69;102506.44;6249677;22;20469;-77
2023/05/17 00:53:14;;;;;;;11.45;3.95;;;;;;;7.53;97.63;102507.19;6249838;22;20023;-77
2023/05/17 00:55:43;;;;;;;15.38;3.90;;;;;;;7.50;98.04;102504.53;6251249;22;20037;-77
2023/05/17 00:58:13;;;;;;;16.13;4.00;;;;;;;7.46;98.04;102504.53;6251497;22;20017;-76
2023/05/17 01:00:40;;;;;;;11.68;3.67;;;;;;;7.45;98.36;102510.19;6251980;22;20521;-76
2023/05/17 01:03:07;;;;;;;13.88;3.67;;;;;;;7.45;98.40;102510.19;6250976;22;20048;-77
2023/05/17 01:05:33;;;;;;;10.57;3.60;;;;;;;7.44;98.46;102514.75;6250015;22;20020;-77
2023/05/17 01:08:01;;;;;;;16.48;4.15;;;;;;;7.45;98.64;102520.81;6251431;22;20016;-76
2023/05/17 01:11:07;;;;;;;14.10;4.35;;;;;;;7.44;98.52;102512.09;6249323;22;20469;-76
2023/05/17 01:14:01;;;;;;;15.70;4.35;;;;;;;7.44;99.00;102520.03;6249979;22;20023;-76
2023/05/17 01:16:39;;;;;;;11.55;4.88;;;;;;;7.45;99.29;102515.50;6235291;22;20064;-76
2023/05/17 01:19:40;;;;;;;12.60;4.43;;;;;;;7.46;99.33;102509.81;6251531;22;20419;-76
2023/05/17 01:22:44;;;;;;;9.73;3.42;;;;;;;7.47;99.56;102511.34;6249946;22;20023;-77
2023/05/17 01:25:52;;;;;;;21.20;4.00;;;;;;;7.48;99.63;102504.91;6204953;22;20020;-76
2023/05/17 01:28:21;;;;;;;7.85;3.60;;;;;;;7.48;100.00;102512.88;6128318;23;20033;-76
2023/05/17 01:30:50;;;;;;;10.25;4.00;;;;;;;7.49;100.00;102519.69;6103056;23;20018;-76
2023/05/17 01:33:18;;;;;;;14.63;4.07;;;;;;;7.53;100.00;102504.53;6128479;23;20026;-76
2023/05/17 01:35:45;;;;;;;12.02;3.75;;;;;;;7.56;100.00;102514.41;6128180;23;20173;-76
2023/05/17 01:38:12;;;;;;;12.70;3.92;;;;;;;7.59;100.00;102502.28;6128484;23;20022;-76
2023/05/17 01:40:51;;;;;;;14.30;4.50;;;;;;;7.62;100.00;102502.28;6128468;23;20109;-76
2023/05/17 01:43:40;;;;;;;22.63;4.38;;;;;;;7.64;100.00;102497.34;6128221;23;20420;-76
2023/05/17 01:46:29;;;;;;;13.55;3.63;;;;;;;7.66;100.00;102503.03;6127581;23;20022;-76
2023/05/17 01:48:59;;;;;;;15.93;4.30;;;;;;;7.67;100.00;102499.25;6104039;23;20356;-76
2023/05/17 01:51:32;;;;;;;19.08;3.97;;;;;;;7.68;100.00;102503.44;6128421;23;20616;-76
2023/05/17 01:54:03;;;;;;;8.63;3.75;;;;;;;7.69;100.00;102498.88;6079944;23;20057;-77
2023/05/17 01:56:33;;;;;;;12.70;4.18;;;;;;;7.69;100.00;102510.25;6103634;23;20693;-76
2023/05/17 01:59:05;;;;;;;10.38;4.10;;;;;;;7.72;100.00;102511.38;6128405;23;20029;-76
2023/05/17 02:01:33;;;;;;;14.85;4.10;;;;;;;7.74;100.00;102513.66;6103349;23;20018;-76
2023/05/17 02:04:01;;;;;;;13.23;4.40;;;;;;;7.76;100.00;102512.16;6198371;22;20032;-76
2023/05/17 02:06:30;;;;;;;8.45;3.47;;;;;;;7.78;100.00;102514.44;6251438;22;20041;-77
2023/05/17 02:08:59;;;;;;;13.10;4.28;;;;;;;7.79;100.00;102508.00;6224322;22;20012;-77
2023/05/17 02:11:26;;;;;;;12.90;4.15;;;;;;;7.81;100.00;102513.69;6249430;22;20446;-76
2023/05/17 02:13:52;;;;;;;12.07;3.97;;;;;;;7.83;100.00;102503.47;6248861;22;20449;-76
2023/05/17 02:16:19;;;;;;;13.35;4.13;;;;;;;7.83;100.00;102509.50;6251404;22;20017;-76
2023/05/17 02:18:48;;;;;;;17.48;4.13;;;;;;;7.84;100.00;102508.38;6251350;22;20044;-76
2023/05/17 02:21:17;;;;;;;12.43;3.67;;;;;;;7.85;100.00;102501.19;6250849;22;20104;-76
2023/05/17 02:23:43;;;;;;;11.95;4.05;;;;;;;7.85;100.00;102504.59;6249261;22;20463;-76
2023/05/17 02:26:10;;;;;;;14.45;4.28;;;;;;;7.86;100.00;102511.41;6249601;22;20485;-76
2023/05/17 02:28:37;;;;;;;19.27;4.55;;;;;;;7.86;100.00;102508.75;6248573;22;20021;-76
2023/05/17 02:31:03;;;;;;;10.45;4.38;;;;;;;7.88;100.00;102505.75;6251146;22;20927;-76
2023/05/17 02:33:30;;;;;;;10.10;4.30;;;;;;;7.88;100.00;102516.34;6251054;22;20048;-76
2023/05/17 02:35:56;;;;;;;17.38;4.70;;;;;;;7.88;100.00;102511.78;6250921;22;20012;-76
2023/05/17 02:38:23;;;;;;;8.05;3.53;;;;;;;7.89;100.00;102512.56;6251107;22;20017;-76
2023/05/17 02:40:50;;;;;;;10.75;4.05;;;;;;;7.89;100.00;102521.28;6251171;22;20381;-77
2023/05/17 02:43:16;;;;;;;18.95;4.50;;;;;;;7.91;100.00;102520.91;6250358;22;20079;-76
2023/05/17 02:45:43;;;;;;;10.50;4.20;;;;;;;7.92;100.00;102520.50;6251034;22;20017;-76
2023/05/17 02:48:11;;;;;;;10.20;4.68;;;;;;;7.94;100.00;102515.59;6250890;22;20092;-76
2023/05/17 02:50:38;;;;;;;15.52;4.57;;;;;;;7.94;100.00;102520.91;6223712;22;20027;-76
2023/05/17 02:53:04;;;;;;;12.02;4.55;;;;;;;7.95;100.00;102522.41;6224081;22;20025;-76
2023/05/17 02:55:31;;;;;;;13.10;4.43;;;;;;;7.97;100.00;102525.44;6248990;22;20029;-76
2023/05/17 02:57:58;;;;;;;15.10;4.63;;;;;;;7.99;100.00;102527.72;6248552;22;20067;-76
2023/05/17 03:00:24;;;;;;;14.90;4.38;;;;;;;8.01;100.00;102533.38;6248795;22;20091;-76
2023/05/17 03:02:52;;;;;;;10.55;4.00;;;;;;;8.04;100.00;102538.69;6223776;22;20099;-76
2023/05/17 03:05:18;;;;;;;8.85;4.70;;;;;;;8.06;100.00;102542.88;6249171;22;20111;-77
2023/05/17 03:07:48;;;;;;;7.05;3.85;;;;;;;8.10;100.00;102546.28;6248703;22;20020;-76
2023/05/17 03:10:15;;;;;;;13.23;4.05;;;;;;;8.11;100.00;102543.25;6223854;22;20048;-76
2023/05/17 03:12:43;;;;;;;14.15;4.20;;;;;;;8.14;100.00;102542.50;6248752;22;20454;-77
2023/05/17 03:15:11;;;;;;;9.65;3.50;;;;;;;8.15;100.00;102546.66;6248791;22;20017;-77
2023/05/17 03:17:38;;;;;;;17.27;4.68;;;;;;;8.17;100.00;102548.94;6248810;22;20091;-77
2023/05/17 03:20:06;;;;;;;11.93;3.90;;;;;;;8.16;100.00;102545.53;6248906;22;20056;-77
2023/05/17 03:22:34;;;;;;;10.13;4.35;;;;;;;8.16;100.00;102553.50;6248474;22;20025;-76
2023/05/17 03:25:02;;;;;;;7.85;3.63;;;;;;;8.17;100.00;102559.56;6248690;22;20025;-77
2023/05/17 03:27:29;;;;;;;16.65;4.22;;;;;;;8.15;100.00;102557.28;6247944;22;20021;-76
2023/05/17 03:29:56;;;;;;;12.05;4.25;;;;;;;8.13;100.00;102564.84;6248547;22;20012;-76
2023/05/17 03:32:24;;;;;;;15.80;4.60;;;;;;;8.12;100.00;102563.34;6248688;22;20093;-76
2023/05/17 03:34:51;;;;;;;12.00;4.20;;;;;;;8.09;100.00;102558.78;6251939;22;20017;-76
2023/05/17 03:37:18;;;;;;;12.50;4.00;;;;;;;8.08;100.00;102578.47;6250011;22;20092;-77
2023/05/17 03:39:46;;;;;;;15.57;4.68;;;;;;;8.06;100.00;102575.44;6250104;22;20044;-76
2023/05/17 03:42:12;;;;;;;14.98;4.00;;;;;;;8.04;100.00;102572.41;6249432;22;20028;-76
2023/05/17 03:44:40;;;;;;;8.80;3.88;;;;;;;8.04;100.00;102577.72;6249869;22;20075;-77
2023/05/17 03:47:07;;;;;;;13.30;4.25;;;;;;;8.02;100.00;102580.75;6249820;22;20017;-76
2023/05/17 03:49:33;;;;;;;13.00;3.95;;;;;;;8.01;100.00;102581.88;6249611;22;20410;-77
2023/05/17 03:52:02;;;;;;;16.27;4.32;;;;;;;7.99;100.00;102586.84;6249871;22;20025;-77
2023/05/17 03:54:28;;;;;;;13.27;4.07;;;;;;;7.97;100.00;102588.34;6252078;22;20016;-76
2023/05/17 03:56:55;;;;;;;14.65;3.88;;;;;;;7.95;100.00;102591.38;6249452;22;20386;-77
2023/05/17 03:59:22;;;;;;;9.98;4.20;;;;;;;7.94;100.00;102589.09;6250028;22;20032;-77
2023/05/17 04:01:49;;;;;;;13.43;4.10;;;;;;;7.94;100.00;102594.41;6249913;22;20020;-76
2023/05/17 04:04:16;;;;;;;9.38;3.55;;;;;;;7.92;100.00;102591.34;6250156;22;20100;-76
2023/05/17 04:06:42;;;;;;;11.27;3.85;;;;;;;7.91;100.00;102589.84;6250179;22;20023;-76
2023/05/17 04:09:11;;;;;;;15.00;4.07;;;;;;;7.90;100.00;102591.72;6250224;22;20462;-76
2023/05/17 04:11:39;;;;;;;10.13;3.20;;;;;;;7.89;100.00;102600.81;6249411;22;20025;-76
2023/05/17 04:14:06;;;;;;;15.98;3.28;;;;;;;7.90;98.94;102602.34;6249827;22;20021;-76
2023/05/17 04:16:33;;;;;;;13.98;3.50;;;;;;;7.92;98.86;102608.03;6250003;22;20099;-76
2023/05/17 04:18:59;;;;;;;10.75;2.67;;;;;;;7.94;98.55;102607.66;6249773;22;20039;-76
2023/05/17 04:21:28;;;;;;;9.68;2.90;;;;;;;7.95;97.88;102614.47;6249701;22;20027;-77
2023/05/17 04:23:55;;;;;;;13.18;3.30;;;;;;;7.97;97.32;102625.47;6250105;22;20079;-76
2023/05/17 04:26:21;;;;;;;9.77;3.00;;;;;;;7.98;96.93;102617.16;6249428;22;20063;-76
2023/05/17 04:28:48;;;;;;;7.65;2.78;;;;;;;7.99;96.44;102636.47;6251712;22;20027;-76
2023/05/17 04:31:16;;;;;;;10.23;2.72;;;;;;;8.03;96.47;102631.91;6249820;22;20455;-76
2023/05/17 04:33:43;;;;;;;7.53;3.10;;;;;;;8.07;96.17;102635.31;6249833;22;20021;-77
2023/05/17 04:36:11;;;;;;;6.20;2.63;;;;;;;8.11;95.65;102638.75;6249715;22;20027;-76
2023/05/17 04:38:38;;;;;;;8.30;2.30;;;;;;;8.16;94.86;102634.97;6224694;22;20012;-77
2023/05/17 04:41:08;;;;;;;8.23;2.25;;;;;;;8.22;93.95;102641.44;6249331;22;20056;-76
2023/05/17 04:43:37;;;;;;;12.40;2.50;;;;;;;8.29;93.34;102642.19;6249619;22;20016;-75
2023/05/17 04:46:07;;;;;;;8.13;2.28;;;;;;;8.38;92.61;102644.53;6250051;22;20020;-75
2023/05/17 04:48:37;;;;;;;10.25;2.42;;;;;;;9.08;91.11;102645.63;6249764;22;20039;-76
2023/05/17 04:51:05;;;;;;;12.10;2.80;;;;;;;10.74;84.37;102651.25;6249882;22;20584;-75
2023/05/17 04:53:32;;;;;;;11.98;2.72;;;;;;;12.08;77.97;102653.53;6251152;22;20013;-75
2023/05/17 04:56:05;;;;;;;10.82;2.60;;;;;;;13.60;71.37;102660.81;6249777;22;20020;-75
2023/05/17 04:58:32;;;;;;;10.93;2.75;;;;;;;14.99;65.76;102669.09;6249841;22;20020;-76
2023/05/17 05:01:00;;;;;;;3.95;1.95;;;;;;;16.19;60.65;102658.00;6249654;22;20493;-75
2023/05/17 05:03:27;;;;;;;6.40;1.95;;;;;;;16.97;57.08;102664.25;6249962;22;20476;-75
2023/05/17 05:05:54;;;;;;;13.98;2.80;;;;;;;17.66;54.21;102676.78;6251910;22;20078;-76
2023/05/17 05:08:22;;;;;;;8.27;2.17;;;;;;;18.45;52.17;102674.47;6249110;22;20667;-75
2023/05/17 05:10:50;;;;;;;7.95;2.35;;;;;;;18.68;50.49;102678.59;6250093;22;20025;-76
2023/05/17 05:13:19;;;;;;;7.47;2.30;;;;;;;19.23;48.22;102690.06;6249849;22;20025;-76
2023/05/17 05:15:46;;;;;;;6.68;2.10;;;;;;;19.60;47.25;102690.75;6250020;22;20039;-77
2023/05/17 05:18:12;;;;;;;7.55;2.45;;;;;;;19.90;45.96;102700.56;6250143;22;20088;-77
2023/05/17 05:20:39;;;;;;;8.07;2.47;;;;;;;20.19;44.47;102697.25;6250006;22;20540;-77
2023/05/17 05:23:06;;;;;;;10.23;2.45;;;;;;;20.41;44.47;102698.94;6249714;22;20111;-77
2023/05/17 05:25:36;;;;;;;6.88;2.13;;;;;;;20.36;43.76;102704.97;6250229;22;20020;-77
2023/05/17 05:28:04;;;;;;;9.40;2.60;;;;;;;20.72;43.18;102709.41;6249781;22;20447;-77
2023/05/17 05:30:31;;;;;;;9.07;2.10;;;;;;;20.81;41.94;102709.31;6249834;22;20021;-77
2023/05/17 05:32:58;;;;;;;11.55;2.47;;;;;;;21.13;41.51;102713.13;6250119;22;20012;-77
2023/05/17 05:35:28;;;;;;;10.98;2.35;;;;;;;21.13;41.46;102713.13;6251525;22;20075;-77
2023/05/17 05:37:57;;;;;;;11.23;2.60;;;;;;;21.13;41.64;102719.28;6249755;22;20075;-76
2023/05/17 05:40:24;;;;;;;10.60;2.40;;;;;;;20.96;42.04;102723.63;6250267;22;20025;-76
2023/05/17 05:42:51;;;;;;;8.90;2.00;;;;;;;20.82;42.09;102724.34;6249980;22;20458;-76
2023/05/17 05:45:20;;;;;;;8.48;2.40;;;;;;;20.93;42.13;102733.44;6250086;22;20091;-76
2023/05/17 05:47:48;;;;;;;9.38;2.20;;;;;;;20.72;42.15;102731.81;6249459;22;20021;-76
2023/05/17 05:50:15;;;;;;;10.65;2.28;;;;;;;20.01;42.24;102729.03;6251811;22;20023;-76
2023/05/17 05:52:43;;;;;;;8.32;2.63;;;;;;;19.61;43.03;102730.81;6248906;22;20020;-76
2023/05/17 05:55:10;;;;;;;11.30;2.28;;;;;;;18.92;44.67;102733.44;6250292;22;20087;-76
2023/05/17 05:57:36;;;;;;;13.13;2.15;;;;;;;18.51;45.46;102730.06;6251683;22;20020;-76
2023/05/17 06:00:04;;;;;;;9.55;2.33;;;;;;;18.44;46.15;102732.28;6249604;22;20348;-76
2023/05/17 06:02:38;;;;;;;7.25;2.15;;;;;;;18.07;46.84;102732.19;6251606;22;20962;-77
2023/05/17 06:05:05;;;;;;;10.20;2.55;;;;;;;17.94;47.02;102743.09;6249883;22;20016;-77
2023/05/17 06:07:32;;;;;;;9.18;2.10;;;;;;;17.67;47.75;102737.53;6250696;22;20040;-77
2023/05/17 06:09:59;;;;;;;14.43;2.53;;;;;;;17.47;48.71;102735.16;6251335;22;20093;-77
2023/05/17 06:12:25;;;;;;;9.70;2.13;;;;;;;17.27;48.49;102746.22;6251338;22;20022;-77
2023/05/17 06:14:52;;;;;;;12.13;2.55;;;;;;;16.96;49.71;102740.75;6251577;22;20461;-78
2023/05/17 06:17:20;;;;;;;9.27;2.42;;;;;;;16.91;49.60;102751.31;6251281;22;20051;-77
2023/05/17 06:19:48;;;;;;;5.55;2.03;;;;;;;16.82;50.27;102743.16;6251423;22;20016;-77
2023/05/17 06:22:15;;;;;;;12.65;2.05;;;;;;;16.81;48.24;102752.41;6250737;22;20019;-77
2023/05/17 06:24:41;;;;;;;6.20;1.90;;;;;;;16.78;48.75;102746.00;6249686;22;20450;-78
2023/05/17 06:27:08;;;;;;;9.07;2.05;;;;;;;16.64;48.09;102741.06;6251159;22;20021;-78
2023/05/17 06:29:35;;;;;;;6.70;1.77;;;;;;;16.53;47.96;102743.31;6251000;22;20048;-78
2023/05/17 06:32:01;;;;;;;10.18;1.75;;;;;;;16.38;47.87;102750.31;6249783;22;20023;-79
2023/05/17 06:34:28;;;;;;;10.85;1.83;;;;;;;16.24;48.01;102754.94;6249650;22;20096;-77
2023/05/17 06:36:54;;;;;;;6.47;1.77;;;;;;;15.93;48.01;102762.78;6248936;22;20097;-77
2023/05/17 06:39:21;;;;;;;8.68;1.55;;;;;;;15.88;48.83;102765.97;6251206;22;20025;-77
2023/05/17 06:41:47;;;;;;;9.52;1.67;;;;;;;15.87;48.58;102772.53;6249813;22;20020;-77
2023/05/17 06:44:16;;;;;;;5.25;1.55;;;;;;;15.78;48.99;102772.41;6251228;22;20044;-77
2023/05/17 06:46:42;;;;;;;11.35;2.75;;;;;;;15.63;48.67;102776.66;6223965;22;20017;-77
2023/05/17 06:49:09;;;;;;;5.57;1.58;;;;;;;15.51;49.07;102780.03;6223876;22;20025;-77
2023/05/17 06:51:36;;;;;;;5.82;1.92;;;;;;;15.34;48.75;102779.31;6248867;22;20095;-77
2023/05/17 06:54:02;;;;;;;8.75;1.63;;;;;;;15.33;49.45;102783.19;6251065;22;20461;-77
2023/05/17 06:56:29;;;;;;;7.35;1.77;;;;;;;15.42;49.16;102777.97;6250910;22;20013;-77
2023/05/17 06:58:55;;;;;;;5.68;1.90;;;;;;;15.54;50.02;102779.19;6249449;22;20071;-77
2023/05/17 07:01:23;;;;;;;7.50;1.83;;;;;;;15.75;50.18;102784.00;6249209;22;20024;-78
2023/05/17 07:03:50;;;;;;;18.90;1.95;;;;;;;15.68;50.22;102776.88;6251215;22;20016;-78
2023/05/17 07:06:17;;;;;;;4.75;1.77;;;;;;;15.49;51.22;102787.75;6249271;22;20083;-77
2023/05/17 07:08:43;;;;;;;7.30;1.70;;;;;;;15.36;50.57;102795.75;6252110;22;20052;-77
2023/05/17 07:11:10;;;;;;;4.72;1.52;;;;;;;15.23;51.21;102800.28;6252424;22;20016;-77
2023/05/17 07:13:36;;;;;;;3.30;1.30;;;;;;;15.35;50.30;102792.31;6252329;22;20020;-77
2023/05/17 07:16:03;;;;;;;7.55;1.90;;;;;;;15.17;50.60;102804.69;6250746;22;20008;-77
2023/05/17 07:18:29;;;;;;;5.85;1.67;;;;;;;15.16;50.96;102805.84;6249985;22;20040;-77
2023/05/17 07:20:56;;;;;;;5.82;1.42;;;;;;;14.81;50.98;102807.44;6252243;22;20482;-77
2023/05/17 07:23:23;;;;;;;6.68;2.00;;;;;;;14.59;52.11;102812.56;6252286;22;20013;-78
2023/05/17 07:25:49;;;;;;;6.45;2.17;;;;;;;14.51;52.12;102806.59;6225145;22;20028;-77
2023/05/17 07:28:16;;;;;;;4.53;1.27;;;;;;;14.33;52.21;102804.28;6250436;22;20444;-77
2023/05/17 07:30:43;;;;;;;4.05;1.48;;;;;;;14.31;52.35;102811.22;6252191;22;20013;-78
2023/05/17 07:33:09;;;;;;;8.55;1.52;;;;;;;14.65;52.24;102808.97;6250111;22;20092;-78
2023/05/17 07:35:36;;;;;;;7.60;1.40;;;;;;;14.95;50.71;102807.88;6252104;22;20039;-77
2023/05/17 07:38:02;;;;;;;7.65;1.70;;;;;;;14.89;51.53;102816.84;6252026;22;20021;-77
2023/05/17 07:40:29;;;;;;;4.28;1.08;;;;;;;15.08;48.24;102817.94;6252265;22;20013;-77
2023/05/17 07:42:55;;;;;;;3.17;1.45;;;;;;;15.42;48.80;102812.84;6252170;22;20012;-77
2023/05/17 07:45:25;;;;;;;6.72;1.75;;;;;;;15.39;48.48;102813.69;6250400;22;20462;-77
2023/05/17 07:47:51;;;;;;;8.95;1.60;;;;;;;15.00;48.86;102820.03;6251287;22;20040;-78
2023/05/17 07:50:18;;;;;;;10.70;1.80;;;;;;;14.86;49.52;102818.44;6252148;22;20023;-77
2023/05/17 07:52:45;;;;;;;3.88;1.50;;;;;;;14.66;50.08;102828.47;6252102;22;20013;-77
2023/05/17 07:55:11;;;;;;;8.25;1.50;;;;;;;14.99;48.96;102829.25;6251620;22;20108;-77
2023/05/17 07:57:40;;;;;;;8.63;1.70;;;;;;;15.00;48.64;102834.19;6250391;22;20020;-77
2023/05/17 08:00:07;;;;;;;7.13;1.48;;;;;;;14.95;48.99;102828.56;6252160;22;20017;-77
2023/05/17 08:02:37;;;;;;;6.55;1.67;;;;;;;14.80;48.63;102836.19;6251532;22;20028;-78
2023/05/17 08:05:04;;;;;;;4.78;1.40;;;;;;;14.98;48.81;102838.47;6251949;22;20316;-78
2023/05/17 08:07:31;;;;;;;6.05;1.85;;;;;;;15.03;48.20;102832.59;6252172;22;20021;-77
2023/05/17 08:09:57;;;;;;;5.38;1.60;;;;;;;15.21;48.22;102838.28;6252029;22;20505;-77
2023/05/17 08:12:24;;;;;;;6.28;1.67;;;;;;;15.63;47.39;102838.41;6250500;22;20014;-78
2023/05/17 08:14:50;;;;;;;6.35;1.23;;;;;;;15.61;46.55;102846.88;6250002;22;20461;-77
2023/05/17 08:17:17;;;;;;;3.53;1.50;;;;;;;15.61;47.79;102840.75;6249681;22;20039;-78
2023/05/17 08:19:44;;;;;;;6.97;1.55;;;;;;;15.73;47.26;102831.25;6249765;22;20016;-77
2023/05/17 08:22:10;;;;;;;8.65;1.80;;;;;;;15.58;48.42;102842.38;6251955;22;20017;-78
2023/05/17 08:24:37;;;;;;;5.93;1.77;;;;;;;15.98;47.07;102855.50;6251915;22;20157;-77
2023/05/17 08:27:04;;;;;;;5.03;1.58;;;;;;;16.06;47.41;102854.09;6251979;22;20072;-78
2023/05/17 08:29:30;;;;;;;3.80;1.48;;;;;;;15.90;47.33;102843.44;6251789;22;20406;-78
2023/05/17 08:31:57;;;;;;;6.00;1.58;;;;;;;15.60;47.66;102855.34;6251375;22;20040;-78
2023/05/17 08:34:23;;;;;;;5.85;1.70;;;;;;;15.09;47.77;102862.38;6251728;22;20013;-78
2023/05/17 08:36:50;;;;;;;4.32;1.58;;;;;;;15.13;47.46;102850.38;6251923;22;20447;-78
2023/05/17 08:39:17;;;;;;;4.55;1.27;;;;;;;14.99;47.53;102848.78;6251890;22;20074;-77
2023/05/17 08:41:47;;;;;;;3.92;1.75;;;;;;;15.28;47.15;102850.75;6252025;22;20008;-77
2023/05/17 08:44:15;;;;;;;5.60;1.80;;;;;;;15.88;46.69;102851.94;6251794;22;20020;-78
2023/05/17 08:46:43;;;;;;;8.20;1.73;;;;;;;16.11;44.60;102856.28;6251027;22;20067;-77
2023/05/17 08:49:11;;;;;;;3.60;1.13;;;;;;;16.30;45.20;102851.91;6251836;22;20107;-78
2023/05/17 08:51:40;;;;;;;6.82;1.83;;;;;;;16.52;42.85;102852.78;6250403;22;20017;-78
2023/05/17 08:54:07;;;;;;;2.78;1.13;;;;;;;16.54;43.45;102857.72;6252039;22;20170;-78
2023/05/17 08:56:37;;;;;;;5.70;1.20;;;;;;;16.81;42.16;102851.94;6251696;22;20013;-78
2023/05/17 08:59:05;;;;;;;4.25;1.20;;;;;;;16.94;42.86;102858.81;6251759;22;20019;-78
2023/05/17 09:01:32;;;;;;;3.30;1.40;;;;;;;17.18;40.94;102853.84;6249243;22;20425;-77
2023/05/17 09:03:59;;;;;;;3.88;1.73;;;;;;;17.11;42.29;102856.00;6251804;22;20472;-77
2023/05/17 09:06:26;;;;;;;8.38;1.60;;;;;;;16.49;43.30;102861.69;6250021;22;20108;-78
2023/05/17 09:08:53;;;;;;;3.58;1.58;;;;;;;16.10;44.62;102870.13;6249755;22;20025;-77
2023/05/17 09:11:26;;;;;;;8.00;1.90;;;;;;;16.39;44.68;102868.16;6250308;22;20030;-77
2023/05/17 09:13:56;;;;;;;10.25;1.33;;;;;;;16.85;44.08;102868.72;6251748;22;20446;-78
2023/05/17 09:16:23;;;;;;;3.70;1.50;;;;;;;16.72;44.24;102870.69;6249704;22;20087;-77
2023/05/17 09:18:54;;;;;;;7.05;1.42;;;;;;;16.92;44.08;102881.94;6251764;22;20047;-78
2023/05/17 09:21:22;;;;;;;2.65;1.10;;;;;;;17.15;42.13;102872.78;6251715;22;20095;-79
2023/05/17 09:23:53;;;;;;;4.13;1.50;;;;;;;17.03;42.16;102877.00;6250204;22;20027;-78
2023/05/17 09:26:39;;;;;;;3.58;1.35;;;;;;;17.25;43.18;102877.03;6251845;22;20100;-78
2023/05/17 09:29:15;;;;;;;2.22;1.70;;;;;;;17.25;42.08;102871.66;6251000;22;20398;-78
2023/05/17 09:31:43;;;;;;;5.13;1.30;;;;;;;17.26;42.76;102876.63;6249338;22;20446;-78
2023/05/17 09:34:10;;;;;;;4.63;1.63;;;;;;;17.36;41.47;102872.06;6251853;22;20045;-78
2023/05/17 09:36:41;;;;;;;4.68;1.50;;;;;;;17.48;41.56;102879.38;6251704;22;20104;-78
2023/05/17 09:39:09;;;;;;;5.13;1.30;;;;;;;17.54;41.04;102883.00;6250085;22;20394;-78
2023/05/17 09:41:45;;;;;;;7.13;1.35;;;;;;;17.67;40.59;102883.72;6251922;22;20477;-78
2023/05/17 09:44:13;;;;;;;4.30;1.40;;;;;;;17.74;40.11;102888.13;6251060;22;20071;-79
2023/05/17 09:46:46;;;;;;;3.13;1.40;;;;;;;17.77;40.69;102879.16;6251650;22;20055;-78
2023/05/17 09:49:13;;;;;;;6.80;1.55;;;;;;;17.97;40.57;102889.66;6251588;22;20071;-78
2023/05/17 09:51:41;;;;;;;3.58;1.50;;;;;;;18.02;39.96;102902.53;6249642;22;20052;-78
2023/05/17 09:54:09;;;;;;;7.45;1.80;;;;;;;17.82;40.34;102902.84;6251464;22;20021;-78
2023/05/17 09:56:36;;;;;;;3.92;1.35;;;;;;;17.88;39.61;102892.28;6251108;22;20031;-78
2023/05/17 09:59:03;;;;;;;7.57;1.30;;;;;;;17.97;39.00;102892.34;6250890;22;20446;-78
2023/05/17 10:01:30;;;;;;;5.78;1.52;;;;;;;18.09;39.69;102893.44;6249964;22;20013;-79
2023/05/17 10:04:01;;;;;;;5.80;1.10;;;;;;;18.09;39.75;102886.13;6251460;22;20071;-78
2023/05/17 10:06:29;;;;;;;3.42;1.30;;;;;;;18.09;38.73;102879.97;6251484;22;20020;-78
2023/05/17 10:09:13;;;;;;;3.25;1.20;;;;;;;18.23;39.21;102884.84;6251431;22;20021;-78
2023/05/17 10:11:44;;;;;;;5.57;1.40;;;;;;;18.30;38.32;102885.34;6251618;22;20012;-79
2023/05/17 10:14:22;;;;;;;6.50;1.60;;;;;;;18.43;38.46;102889.88;6250943;22;20037;-78
2023/05/17 10:16:50;;;;;;;8.95;1.55;;;;;;;18.53;38.81;102892.19;6251370;22;20024;-78
2023/05/17 10:19:19;;;;;;;3.42;1.20;;;;;;;18.52;36.82;102890.69;6251300;22;20020;-79
2023/05/17 10:21:47;;;;;;;13.07;1.58;;;;;;;18.76;37.17;102893.69;6251399;22;20009;-79
2023/05/17 10:24:15;;;;;;;3.42;1.25;;;;;;;18.65;38.07;102880.59;6251111;22;20024;-79
2023/05/17 10:26:41;;;;;;;4.13;1.27;;;;;;;18.79;37.78;102889.34;6251006;22;20031;-79
2023/05/17 10:29:08;;;;;;;4.30;1.40;;;;;;;18.89;37.66;102878.09;6250599;22;20017;-79
2023/05/17 10:31:35;;;;;;;3.63;1.38;;;;;;;18.52;36.81;102890.69;6249616;22;20021;-79
2023/05/17 10:34:05;;;;;;;6.47;1.85;;;;;;;18.62;37.68;102888.81;6249641;22;20024;-79
2023/05/17 10:36:32;;;;;;;8.82;1.52;;;;;;;18.87;37.32;102898.63;6251301;22;20020;-78
2023/05/17 10:39:00;;;;;;;4.22;1.50;;;;;;;18.55;36.52;102895.19;6251282;22;20186;-78
2023/05/17 10:41:33;;;;;;;5.55;1.30;;;;;;;18.36;37.51;102890.19;6251020;22;20020;-79
2023/05/17 10:44:02;;;;;;;4.57;1.80;;;;;;;18.69;37.20;102888.53;6250813;22;20413;-79
2023/05/17 10:46:30;;;;;;;5.93;1.80;;;;;;;18.48;37.87;102887.38;6250588;22;20060;-79
2023/05/17 10:48:59;;;;;;;7.18;1.45;;;;;;;18.28;37.95;102887.75;6252470;22;20398;-79
2023/05/17 10:51:31;;;;;;;4.40;1.27;;;;;;;18.43;36.55;102887.19;6252447;22;20390;-78
2023/05/17 10:54:09;;;;;;;7.88;1.48;;;;;;;18.53;37.20;102883.34;6252356;22;20016;-78
2023/05/17 10:56:45;;;;;;;4.80;1.27;;;;;;;18.74;36.80;102884.53;6251631;22;20071;-78
2023/05/17 10:59:20;;;;;;;7.68;1.98;;;;;;;18.72;37.69;102898.44;6250894;22;20019;-78
2023/05/17 11:02:05;;;;;;;4.35;1.25;;;;;;;18.77;36.26;102900.56;6250982;22;20016;-78
2023/05/17 11:04:44;;;;;;;3.83;1.27;;;;;;;18.80;36.95;102899.66;6252323;22;20390;-78
2023/05/17 11:07:17;;;;;;;6.63;1.83;;;;;;;18.55;36.30;102886.34;6252351;22;20164;-79
2023/05/17 11:09:45;;;;;;;3.53;1.42;;;;;;;18.71;38.85;102893.50;6252384;22;20020;-78
2023/05/17 11:12:13;;;;;;;5.25;1.38;;;;;;;18.87;36.66;102890.53;6250476;22;20076;-79
2023/05/17 11:14:52;;;;;;;7.28;1.63;;;;;;;18.88;37.02;102887.41;6252246;22;20012;-79
2023/05/17 11:17:21;;;;;;;5.93;1.48;;;;;;;18.59;36.72;102878.88;6252343;22;20045;-78
2023/05/17 11:19:54;;;;;;;3.67;1.42;;;;;;;18.67;36.19;102885.53;6252369;22;20080;-79
2023/05/17 11:22:25;;;;;;;6.25;1.77;;;;;;;18.53;36.46;102883.34;6252322;22;20016;-78
2023/05/17 11:24:55;;;;;;;3.90;1.42;;;;;;;18.42;37.05;102883.75;6251616;22;20461;-78
2023/05/17 11:27:26;;;;;;;5.63;1.48;;;;;;;18.48;35.68;102883.91;6252083;22;20044;-78
2023/05/17 11:29:54;;;;;;;4.72;1.50;;;;;;;18.53;36.70;102878.72;6252304;22;20111;-79
2023/05/17 11:32:28;;;;;;;4.25;1.20;;;;;;;18.29;35.87;102891.19;6252255;22;20063;-78